createdAt,value
2022-08-20T00:02:46.782Z,4.70
2022-08-20T00:05:56.828Z,4.70
2022-08-20T00:08:59.025Z,4.22
2022-08-20T00:12:01.683Z,4.57
2022-08-20T00:15:06.707Z,4.28
2022-08-20T00:18:09.221Z,3.90
2022-08-20T00:21:18.854Z,3.75
2022-08-20T00:24:20.970Z,4.15
2022-08-20T00:27:22.722Z,3.85
2022-08-20T00:30:25.963Z,3.92
2022-08-20T00:33:27.785Z,4.13
2022-08-20T00:36:32.758Z,4.40
2022-08-20T00:39:36.939Z,4.40
2022-08-20T00:42:51.010Z,4.65
2022-08-20T00:45:56.405Z,4.68
2022-08-20T00:48:59.867Z,4.40
2022-08-20T00:52:12.808Z,4.32
2022-08-20T00:55:16.998Z,5.10
2022-08-20T00:58:19.150Z,4.97
2022-08-20T01:01:22.986Z,4.72
2022-08-20T01:04:27.272Z,4.88
2022-08-20T01:07:34.910Z,5.28
2022-08-20T01:10:39.381Z,5.70
2022-08-20T01:13:41.695Z,5.88
2022-08-20T01:16:46.273Z,6.55
2022-08-20T01:19:57.647Z,7.00
2022-08-20T01:23:34.936Z,6.03
2022-08-20T01:26:43.344Z,6.20
2022-08-20T01:29:45.357Z,6.78
2022-08-20T01:32:47.127Z,6.63
2022-08-20T01:35:50.339Z,6.85
2022-08-20T01:38:54.641Z,6.70
2022-08-20T01:42:19.516Z,6.90
2022-08-20T01:45:21.806Z,6.85
2022-08-20T01:48:29.933Z,7.03
2022-08-20T01:51:31.989Z,7.35
2022-08-20T01:54:35.052Z,6.70
2022-08-20T01:57:38.196Z,7.05
2022-08-20T02:00:40.192Z,6.93
2022-08-20T02:03:44.714Z,6.47
2022-08-20T02:06:56.823Z,6.75
2022-08-20T02:09:59.743Z,6.57
2022-08-20T02:13:01.906Z,6.95
2022-08-20T02:16:06.027Z,5.93
2022-08-20T02:19:16.410Z,6.07
2022-08-20T02:22:21.571Z,6.18
2022-08-20T02:25:27.369Z,6.10
2022-08-20T02:28:29.687Z,6.50
2022-08-20T02:31:34.837Z,6.10
2022-08-20T02:34:37.131Z,6.18
2022-08-20T02:37:43.571Z,6.00
2022-08-20T02:40:46.463Z,6.18
2022-08-20T02:43:51.241Z,6.78
2022-08-20T02:46:53.238Z,5.88
2022-08-20T02:49:55.535Z,6.82
2022-08-20T02:52:57.311Z,5.80
2022-08-20T02:56:00.434Z,5.75
2022-08-20T02:59:02.516Z,5.97
2022-08-20T03:02:04.368Z,5.90
2022-08-20T03:05:06.616Z,5.97
2022-08-20T03:08:10.407Z,6.07
2022-08-20T03:11:13.385Z,6.60
2022-08-20T03:14:16.036Z,6.63
2022-08-20T03:17:17.876Z,7.03
2022-08-20T03:20:23.746Z,7.05
2022-08-20T03:23:25.877Z,7.28
2022-08-20T03:26:27.891Z,6.82
2022-08-20T03:29:30.063Z,6.47
2022-08-20T03:32:31.930Z,6.90
2022-08-20T03:35:34.854Z,6.25
2022-08-20T03:38:37.266Z,6.50
2022-08-20T03:41:39.474Z,6.10
2022-08-20T03:44:41.425Z,6.25
2022-08-20T03:47:43.399Z,5.72
2022-08-20T03:50:46.123Z,5.72
2022-08-20T03:53:47.886Z,6.30
2022-08-20T03:56:49.659Z,5.80
2022-08-20T03:59:54.729Z,6.80
2022-08-20T04:03:01.410Z,7.18
2022-08-20T04:06:03.865Z,7.55
2022-08-20T04:09:05.683Z,7.90
2022-08-20T04:12:12.391Z,7.63
2022-08-20T04:15:16.640Z,8.88
2022-08-20T04:18:24.068Z,8.25
2022-08-20T04:21:26.164Z,8.82
2022-08-20T04:24:32.879Z,8.32
2022-08-20T04:27:37.720Z,9.25
2022-08-20T04:30:39.639Z,9.40
2022-08-20T04:33:45.293Z,9.48
2022-08-20T04:36:47.820Z,9.60
2022-08-20T04:40:10.708Z,9.10
2022-08-20T04:43:12.517Z,9.43
2022-08-20T04:46:14.495Z,9.20
2022-08-20T04:49:16.322Z,8.98
2022-08-20T04:52:18.358Z,8.57
2022-08-20T04:55:20.214Z,8.40
2022-08-20T04:58:30.432Z,7.43
2022-08-20T05:01:33.159Z,7.28
2022-08-20T05:04:35.039Z,7.43
2022-08-20T05:07:42.295Z,7.32
2022-08-20T05:10:45.413Z,7.57
2022-08-20T05:13:47.980Z,7.40
2022-08-20T05:16:50.846Z,7.67
2022-08-20T05:19:53.064Z,7.63
2022-08-20T05:22:56.154Z,7.13
2022-08-20T05:25:58.479Z,8.38
2022-08-20T05:29:00.288Z,8.20
2022-08-20T05:32:02.969Z,8.15
2022-08-20T05:35:10.454Z,8.15
2022-08-20T05:38:14.900Z,8.60
2022-08-20T05:41:28.797Z,8.52
2022-08-20T05:44:31.622Z,9.55
2022-08-20T05:47:35.386Z,10.00
2022-08-20T05:50:45.920Z,10.25
2022-08-20T05:53:47.647Z,10.07
2022-08-20T05:56:49.991Z,10.60
2022-08-20T05:59:52.477Z,11.23
2022-08-20T06:03:13.135Z,11.87
2022-08-20T06:06:18.339Z,11.88
2022-08-20T06:09:37.301Z,12.75
2022-08-20T06:12:39.452Z,12.30
2022-08-20T06:15:41.820Z,12.48
2022-08-20T06:18:43.595Z,11.88
2022-08-20T06:21:45.475Z,12.68
2022-08-20T06:24:47.473Z,13.20
2022-08-20T06:27:49.352Z,13.70
2022-08-20T06:30:51.418Z,14.68
2022-08-20T06:33:53.962Z,14.27
2022-08-20T06:36:57.445Z,16.03
2022-08-20T06:40:12.897Z,14.85
2022-08-20T06:43:14.750Z,14.15
2022-08-20T06:46:16.707Z,14.63
2022-08-20T06:49:18.768Z,15.65
2022-08-20T06:52:20.621Z,15.45
2022-08-20T06:55:48.662Z,15.55
2022-08-20T06:58:50.932Z,15.63
2022-08-20T07:01:56.463Z,16.80
2022-08-20T07:04:58.422Z,16.23
2022-08-20T07:08:00.942Z,15.13
2022-08-20T07:11:02.980Z,17.83
2022-08-20T07:14:06.292Z,17.33
2022-08-20T07:17:12.151Z,16.95
2022-08-20T07:20:15.655Z,18.27
2022-08-20T07:23:17.537Z,17.15
2022-08-20T07:26:19.972Z,19.33
2022-08-20T07:29:21.827Z,18.33
2022-08-20T07:32:39.462Z,18.33
2022-08-20T07:35:42.521Z,18.77
2022-08-20T07:38:47.290Z,18.77
2022-08-20T07:42:02.988Z,19.73
2022-08-20T07:45:27.645Z,19.13
2022-08-20T07:48:32.495Z,19.55
2022-08-20T07:51:37.546Z,20.23
2022-08-20T07:54:39.961Z,19.38
2022-08-20T07:57:43.630Z,19.85
2022-08-20T08:00:46.344Z,19.88
2022-08-20T08:03:50.430Z,20.25
2022-08-20T08:06:53.142Z,20.48
2022-08-20T08:09:57.054Z,20.45
2022-08-20T08:13:02.914Z,19.25
2022-08-20T08:16:07.554Z,19.70
2022-08-20T08:19:14.302Z,20.90
2022-08-20T08:22:18.901Z,20.92
2022-08-20T08:25:20.720Z,20.70
2022-08-20T08:28:22.670Z,20.70
2022-08-20T08:31:25.785Z,21.20
2022-08-20T08:34:27.655Z,21.95
2022-08-20T08:37:30.959Z,23.10
2022-08-20T08:40:34.089Z,23.15
2022-08-20T08:43:36.030Z,23.27
2022-08-20T08:46:44.429Z,21.13
2022-08-20T08:49:48.031Z,22.25
2022-08-20T08:53:00.626Z,22.17
2022-08-20T08:56:05.173Z,22.27
2022-08-20T08:59:18.289Z,21.77
2022-08-20T09:02:23.528Z,21.23
2022-08-20T09:05:50.568Z,21.30
2022-08-20T09:09:04.742Z,19.73
2022-08-20T09:12:20.437Z,17.90
2022-08-20T09:15:22.236Z,17.02
2022-08-20T09:18:24.219Z,18.58
2022-08-20T09:21:26.745Z,18.17
2022-08-20T09:24:28.551Z,17.17
2022-08-20T09:27:31.333Z,16.48
2022-08-20T09:30:33.297Z,15.88
2022-08-20T09:33:35.714Z,15.35
2022-08-20T09:36:37.449Z,14.50
2022-08-20T09:39:40.782Z,14.27
2022-08-20T09:45:44.255Z,14.52
2022-08-20T09:48:52.389Z,14.05
2022-08-20T09:51:54.184Z,14.68
2022-08-20T09:55:01.850Z,13.50
2022-08-20T09:58:11.196Z,13.82
2022-08-20T10:01:16.661Z,12.15
2022-08-20T10:04:18.904Z,11.77
2022-08-20T10:07:20.792Z,13.02
2022-08-20T10:10:22.646Z,12.68
2022-08-20T10:13:24.396Z,11.55
2022-08-20T10:16:26.363Z,12.60
2022-08-20T10:19:30.096Z,11.18
2022-08-20T10:22:32.975Z,12.35
2022-08-20T10:25:35.054Z,10.70
2022-08-20T10:28:37.378Z,10.30
2022-08-20T10:31:39.501Z,11.30
2022-08-20T10:34:42.748Z,11.48
2022-08-20T10:37:45.295Z,10.60
2022-08-20T10:40:52.673Z,10.80
2022-08-20T10:43:54.714Z,10.27
2022-08-20T10:47:19.175Z,8.98
2022-08-20T10:50:24.400Z,8.18
2022-08-20T10:53:32.203Z,7.85
2022-08-20T10:56:34.187Z,7.75
2022-08-20T10:59:44.901Z,7.07
2022-08-20T11:02:46.871Z,6.70
2022-08-20T11:05:49.230Z,6.95
2022-08-20T11:08:50.941Z,6.55
2022-08-20T11:11:55.325Z,5.50
2022-08-20T11:14:57.055Z,5.10
2022-08-20T11:17:59.549Z,4.78
2022-08-20T11:21:02.091Z,4.50
2022-08-20T11:24:05.023Z,4.13
2022-08-20T11:27:08.916Z,3.90
2022-08-20T11:30:14.248Z,4.43
2022-08-20T11:33:16.099Z,4.43
2022-08-20T11:36:19.661Z,3.75
2022-08-20T11:39:22.069Z,3.85
2022-08-20T11:42:24.036Z,4.67
2022-08-20T11:45:25.956Z,4.40
2022-08-20T11:48:27.792Z,4.55
2022-08-20T11:51:29.707Z,4.55
2022-08-20T11:54:40.386Z,4.50
2022-08-20T11:57:45.641Z,4.85
2022-08-20T12:00:48.302Z,4.93
2022-08-20T12:03:50.094Z,4.75
2022-08-20T12:06:51.839Z,4.47
2022-08-20T12:09:57.419Z,4.68
2022-08-20T12:12:59.782Z,4.47
2022-08-20T12:16:03.545Z,4.47
2022-08-20T12:19:05.644Z,5.38
2022-08-20T12:22:22.456Z,5.05
2022-08-20T12:25:27.310Z,4.57
2022-08-20T12:28:32.558Z,4.40
2022-08-20T12:31:34.309Z,3.70
2022-08-20T12:34:38.443Z,4.10
2022-08-20T12:37:41.208Z,3.63
2022-08-20T12:40:43.830Z,4.47
2022-08-20T12:43:46.004Z,3.92
2022-08-20T12:46:48.946Z,4.07
2022-08-20T12:49:56.081Z,4.07
2022-08-20T12:52:58.035Z,4.28
2022-08-20T12:56:02.485Z,4.45
2022-08-20T12:59:04.326Z,4.50
2022-08-20T13:02:18.524Z,5.20
2022-08-20T13:05:21.348Z,4.65
2022-08-20T13:08:23.434Z,5.45
2022-08-20T13:11:25.351Z,4.88
2022-08-20T13:14:27.057Z,4.47
2022-08-20T13:17:38.227Z,3.90
2022-08-20T13:20:40.490Z,3.97
2022-08-20T13:23:43.302Z,4.10
2022-08-20T13:26:45.232Z,4.10
2022-08-20T13:29:49.029Z,3.28
2022-08-20T13:32:51.165Z,2.63
2022-08-20T13:35:52.899Z,3.13
2022-08-20T13:38:55.440Z,2.83
2022-08-20T13:41:57.429Z,2.97
2022-08-20T13:45:00.452Z,2.70
2022-08-20T13:48:02.508Z,2.60
2022-08-20T13:51:06.960Z,2.55
2022-08-20T13:54:10.808Z,2.53
2022-08-20T13:57:17.004Z,2.17
2022-08-20T14:00:28.099Z,2.30
2022-08-20T14:03:35.078Z,2.38
2022-08-20T14:06:37.413Z,1.92
2022-08-20T14:09:41.338Z,1.98
2022-08-20T14:12:43.432Z,2.40
2022-08-20T14:15:46.455Z,2.13
2022-08-20T14:18:52.618Z,2.63
2022-08-20T14:21:54.921Z,2.17
2022-08-20T14:24:56.995Z,1.90
2022-08-20T14:28:08.264Z,1.73
2022-08-20T14:31:10.100Z,1.73
2022-08-20T14:34:11.835Z,2.05
2022-08-20T14:37:20.680Z,2.08
2022-08-20T14:40:25.214Z,2.00
2022-08-20T14:43:27.237Z,2.08
2022-08-20T14:46:29.009Z,2.00
2022-08-20T14:49:36.670Z,1.75
2022-08-20T14:52:39.538Z,2.35
2022-08-20T14:55:41.769Z,1.83
2022-08-20T14:58:43.875Z,1.98
2022-08-20T15:01:45.740Z,1.83
2022-08-20T15:04:52.241Z,1.98
2022-08-20T15:07:57.407Z,2.05
2022-08-20T15:11:07.574Z,2.20
2022-08-20T15:14:09.822Z,2.08
2022-08-20T15:17:19.253Z,2.20
2022-08-20T15:20:26.396Z,2.10
2022-08-20T15:23:28.967Z,2.72
2022-08-20T15:26:30.949Z,2.03
2022-08-20T15:29:32.867Z,2.35
2022-08-20T15:32:38.601Z,2.40
2022-08-20T15:35:40.388Z,2.42
2022-08-20T15:38:42.126Z,2.33
2022-08-20T15:41:45.228Z,2.38
2022-08-20T15:44:47.462Z,2.10
2022-08-20T15:47:59.651Z,2.50
2022-08-20T15:51:28.656Z,2.30
2022-08-20T15:54:30.456Z,2.55
2022-08-20T15:58:08.790Z,2.72
2022-08-20T16:01:37.021Z,2.42
2022-08-20T16:05:13.106Z,2.17
2022-08-20T16:08:26.510Z,2.40
2022-08-20T16:11:46.981Z,2.17
2022-08-20T16:14:56.745Z,3.08
2022-08-20T16:18:23.221Z,2.67
2022-08-20T16:21:40.610Z,2.38
2022-08-20T16:24:42.538Z,2.33
2022-08-20T16:28:25.020Z,2.65
2022-08-20T16:31:32.363Z,2.30
2022-08-20T16:34:47.582Z,2.80
2022-08-20T16:38:35.724Z,2.25
2022-08-20T16:41:47.396Z,2.58
2022-08-20T16:44:52.757Z,2.80
2022-08-20T16:48:00.927Z,1.95
2022-08-20T16:51:08.702Z,2.20
2022-08-20T16:54:11.899Z,2.15
2022-08-20T16:57:17.144Z,1.75
2022-08-20T17:00:29.513Z,2.10
2022-08-20T17:03:39.686Z,1.90
2022-08-20T17:06:47.440Z,2.05
2022-08-20T17:09:51.476Z,1.90
2022-08-20T17:16:05.200Z,1.92
2022-08-20T17:19:11.591Z,2.13
2022-08-20T17:22:19.391Z,1.70
2022-08-20T17:25:37.549Z,1.90
2022-08-20T17:28:49.639Z,1.33
2022-08-20T17:31:58.138Z,1.65
2022-08-20T17:35:02.591Z,1.98
2022-08-20T17:38:05.353Z,1.63
2022-08-20T17:41:18.667Z,2.10
2022-08-20T17:44:29.516Z,1.60
2022-08-20T17:47:36.301Z,2.00
2022-08-20T17:50:40.506Z,1.85
2022-08-20T17:53:46.595Z,1.95
2022-08-20T17:57:11.830Z,1.88
2022-08-20T18:00:23.745Z,1.80
2022-08-20T18:03:27.028Z,2.08
2022-08-20T18:06:35.740Z,2.08
2022-08-20T18:10:03.685Z,1.85
2022-08-20T18:13:22.952Z,1.48
2022-08-20T18:16:51.491Z,1.52
2022-08-20T18:20:20.780Z,1.95
2022-08-20T18:23:36.605Z,1.90
2022-08-20T18:26:54.854Z,1.50
2022-08-20T18:30:00.585Z,1.83
2022-08-20T18:33:08.962Z,1.65
2022-08-20T18:36:20.106Z,1.88
2022-08-20T18:39:31.969Z,1.75
2022-08-20T18:42:36.359Z,1.70
2022-08-20T18:45:44.268Z,2.00
2022-08-20T18:49:01.594Z,2.08
2022-08-20T18:52:26.344Z,2.03
2022-08-20T18:55:39.283Z,1.95
2022-08-20T18:58:59.457Z,2.08
2022-08-20T19:02:23.645Z,2.08
2022-08-20T19:05:46.778Z,1.67
2022-08-20T19:09:19.706Z,2.13
2022-08-20T19:12:24.431Z,1.80
2022-08-20T19:15:27.647Z,1.70
2022-08-20T19:18:52.066Z,2.20
2022-08-20T19:21:56.148Z,2.38
2022-08-20T19:24:59.052Z,1.95
2022-08-20T19:28:06.187Z,2.10
2022-08-20T19:31:15.063Z,2.50
2022-08-20T19:34:24.013Z,2.63
2022-08-20T19:37:39.938Z,2.25
2022-08-20T19:40:53.631Z,2.08
2022-08-20T19:44:13.854Z,2.20
2022-08-20T19:47:32.132Z,2.35
2022-08-20T19:50:49.947Z,2.60
2022-08-20T19:53:53.020Z,3.15
2022-08-20T19:57:00.050Z,2.90
2022-08-20T20:00:09.902Z,4.03
2022-08-20T20:03:17.353Z,4.15
2022-08-20T20:06:21.276Z,7.57
2022-08-20T20:09:29.983Z,9.00
2022-08-20T20:12:33.853Z,7.32
2022-08-20T20:15:37.591Z,5.10
2022-08-20T20:18:42.009Z,9.23
2022-08-20T20:21:47.140Z,5.13
2022-08-20T20:25:03.468Z,8.02
2022-08-20T20:28:14.504Z,12.13
2022-08-20T20:31:29.852Z,5.00
2022-08-20T20:34:55.597Z,4.38
2022-08-20T20:38:05.861Z,3.25
2022-08-20T20:41:20.459Z,3.88
2022-08-20T20:44:44.446Z,3.58
2022-08-20T20:47:52.968Z,2.70
2022-08-20T20:50:56.686Z,2.40
2022-08-20T20:54:04.527Z,2.93
2022-08-20T20:57:38.379Z,3.00
2022-08-20T21:00:40.714Z,4.55
2022-08-20T21:03:42.489Z,5.85
2022-08-20T21:06:44.350Z,15.82
2022-08-20T21:09:46.834Z,12.43
2022-08-20T21:12:52.613Z,8.43
2022-08-20T21:15:55.219Z,20.02
2022-08-20T21:18:58.405Z,32.70
2022-08-20T21:22:00.261Z,32.42
2022-08-20T21:25:02.646Z,14.45
2022-08-20T21:28:04.802Z,6.57
2022-08-20T21:31:06.764Z,3.42
2022-08-20T21:34:09.530Z,3.50
2022-08-20T21:37:12.381Z,3.13
2022-08-20T21:40:14.550Z,3.08
2022-08-20T21:43:20.079Z,2.75
2022-08-20T21:46:25.017Z,2.70
2022-08-20T21:49:28.825Z,2.60
2022-08-20T21:52:30.615Z,3.67
2022-08-20T21:55:39.370Z,3.78
2022-08-20T21:58:42.120Z,6.20
2022-08-20T22:01:44.032Z,10.35
2022-08-20T22:04:45.943Z,14.43
2022-08-20T22:07:47.753Z,28.98
2022-08-20T22:10:53.239Z,25.80
2022-08-20T22:13:55.665Z,15.10
2022-08-20T22:16:57.682Z,8.45
2022-08-20T22:19:59.693Z,4.57
2022-08-20T22:23:03.741Z,3.63
2022-08-20T22:26:06.603Z,4.05
2022-08-20T22:29:10.536Z,4.57
2022-08-20T22:32:14.653Z,4.10
2022-08-20T22:35:17.971Z,4.03
2022-08-20T22:38:20.084Z,4.00
2022-08-20T22:41:23.011Z,3.78
2022-08-20T22:44:25.176Z,3.28
2022-08-20T22:47:29.274Z,5.28
2022-08-20T22:50:31.292Z,5.32
2022-08-20T22:53:33.477Z,5.18
2022-08-20T22:56:35.527Z,4.22
2022-08-20T22:59:47.057Z,3.70
2022-08-20T23:02:58.330Z,5.43
2022-08-20T23:06:00.416Z,4.95
2022-08-20T23:09:02.449Z,3.75
2022-08-20T23:12:05.341Z,3.85
2022-08-20T23:15:08.264Z,3.30
2022-08-20T23:18:13.283Z,3.50
2022-08-20T23:21:15.209Z,2.88
2022-08-20T23:24:17.360Z,3.10
2022-08-20T23:27:21.021Z,2.97
2022-08-20T23:30:24.319Z,3.22
2022-08-20T23:33:26.642Z,3.25
2022-08-20T23:36:28.492Z,3.53
2022-08-20T23:39:31.422Z,3.70
2022-08-20T23:42:33.490Z,3.40
2022-08-20T23:45:39.873Z,3.83
2022-08-20T23:48:41.843Z,3.17
2022-08-20T23:51:43.568Z,3.20
2022-08-20T23:54:45.329Z,3.08
2022-08-20T23:57:47.346Z,3.30
